createdAt,value
2023-05-19T00:01:28.368Z,14.60
2023-05-19T00:03:59.137Z,15.90
2023-05-19T00:06:31.848Z,14.90
2023-05-19T00:09:05.830Z,14.20
2023-05-19T00:11:36.395Z,13.70
2023-05-19T00:14:07.524Z,12.40
2023-05-19T00:16:38.070Z,16.10
2023-05-19T00:19:06.834Z,17.60
2023-05-19T00:21:35.120Z,13.80
2023-05-19T00:24:03.714Z,15.40
2023-05-19T00:26:31.780Z,16.90
2023-05-19T00:29:06.896Z,14.80
2023-05-19T00:31:35.246Z,12.80
2023-05-19T00:34:03.338Z,13.00
2023-05-19T00:36:31.538Z,17.70
2023-05-19T00:38:59.570Z,14.20
2023-05-19T00:41:27.884Z,16.30
2023-05-19T00:43:56.113Z,19.60
2023-05-19T00:46:24.999Z,16.20
2023-05-19T00:48:53.343Z,14.60
2023-05-19T00:51:22.785Z,13.30
2023-05-19T00:53:52.285Z,17.90
2023-05-19T00:56:21.915Z,14.30
2023-05-19T00:58:52.029Z,17.50
2023-05-19T01:01:21.972Z,18.90
2023-05-19T01:03:51.633Z,19.80
2023-05-19T01:06:20.964Z,13.70
2023-05-19T01:08:51.819Z,16.30
2023-05-19T01:11:19.932Z,14.40
2023-05-19T01:13:49.167Z,14.50
2023-05-19T01:16:39.069Z,12.70
2023-05-19T01:19:35.257Z,15.30
2023-05-19T01:22:13.487Z,14.20
2023-05-19T01:25:03.122Z,19.30
2023-05-19T01:28:06.452Z,17.50
2023-05-19T01:30:40.852Z,17.20
2023-05-19T01:33:14.275Z,19.50
2023-05-19T01:35:44.339Z,23.00
2023-05-19T01:38:15.429Z,19.30
2023-05-19T01:40:45.910Z,16.50
2023-05-19T01:43:18.109Z,18.20
2023-05-19T01:45:47.629Z,19.10
2023-05-19T01:48:16.512Z,16.80
2023-05-19T01:50:46.881Z,15.50
2023-05-19T01:53:15.216Z,14.90
2023-05-19T01:55:49.738Z,20.80
2023-05-19T01:58:28.725Z,17.10
2023-05-19T02:01:20.456Z,14.70
2023-05-19T02:04:20.564Z,13.20
2023-05-19T02:06:51.621Z,14.30
2023-05-19T02:09:37.901Z,13.60
2023-05-19T02:12:17.444Z,18.70
2023-05-19T02:14:45.537Z,18.80
2023-05-19T02:17:16.894Z,19.10
2023-05-19T02:19:45.390Z,20.80
2023-05-19T02:22:13.546Z,21.20
2023-05-19T02:24:41.749Z,14.30
2023-05-19T02:27:09.913Z,17.60
2023-05-19T02:29:37.971Z,23.00
2023-05-19T02:32:07.768Z,18.60
2023-05-19T02:34:36.037Z,19.10
2023-05-19T02:37:07.948Z,19.30
2023-05-19T02:39:36.002Z,22.30
2023-05-19T02:42:04.321Z,20.20
2023-05-19T02:44:32.554Z,22.60
2023-05-19T02:47:01.010Z,21.20
2023-05-19T02:49:31.226Z,19.20
2023-05-19T02:51:59.235Z,18.70
2023-05-19T02:54:27.573Z,16.60
2023-05-19T02:56:55.749Z,17.30
2023-05-19T02:59:25.605Z,16.40
2023-05-19T03:02:01.123Z,21.10
2023-05-19T03:04:30.308Z,23.00
2023-05-19T03:06:58.585Z,21.70
2023-05-19T03:09:27.096Z,23.80
2023-05-19T03:11:55.234Z,19.00
2023-05-19T03:14:24.588Z,14.20
2023-05-19T03:16:53.073Z,23.20
2023-05-19T03:19:21.798Z,18.60
2023-05-19T03:21:49.876Z,14.00
2023-05-19T03:24:18.370Z,18.60
2023-05-19T03:26:46.739Z,18.50
2023-05-19T03:29:15.222Z,18.70
2023-05-19T03:31:44.017Z,22.90
2023-05-19T03:34:12.997Z,20.70
2023-05-19T03:36:41.524Z,21.10
2023-05-19T03:39:13.458Z,19.40
2023-05-19T03:41:41.912Z,23.70
2023-05-19T03:44:10.450Z,23.50
2023-05-19T03:46:38.733Z,20.00
2023-05-19T03:49:09.631Z,22.50
2023-05-19T03:51:37.733Z,19.40
2023-05-19T03:54:22.732Z,20.70
2023-05-19T03:56:52.480Z,23.00
2023-05-19T03:59:20.551Z,28.40
2023-05-19T04:01:48.867Z,18.80
2023-05-19T04:04:16.855Z,22.50
2023-05-19T04:06:46.756Z,20.50
2023-05-19T04:09:16.834Z,18.50
2023-05-19T04:11:44.837Z,19.20
2023-05-19T04:14:13.061Z,24.00
2023-05-19T04:16:41.805Z,22.50
2023-05-19T04:19:10.205Z,18.90
2023-05-19T04:21:38.527Z,19.40
2023-05-19T04:24:07.060Z,20.60
2023-05-19T04:26:36.239Z,18.50
2023-05-19T04:29:05.117Z,19.30
2023-05-19T04:31:35.580Z,16.50
2023-05-19T04:34:04.611Z,19.80
2023-05-19T04:36:34.185Z,19.10
2023-05-19T04:39:06.386Z,21.60
2023-05-19T04:41:35.116Z,18.70
2023-05-19T04:44:04.402Z,18.00
2023-05-19T04:46:32.975Z,19.80
2023-05-19T04:49:04.099Z,16.90
2023-05-19T04:51:32.405Z,17.40
2023-05-19T04:54:01.892Z,16.80
2023-05-19T04:56:30.224Z,21.10
2023-05-19T04:58:58.358Z,19.30
2023-05-19T05:01:27.665Z,20.70
2023-05-19T05:03:59.263Z,21.00
2023-05-19T05:06:28.802Z,21.70
2023-05-19T05:08:57.090Z,18.60
2023-05-19T05:11:26.912Z,21.50
2023-05-19T05:13:58.310Z,18.40
2023-05-19T05:16:28.492Z,17.50
2023-05-19T05:18:58.457Z,17.30
2023-05-19T05:21:28.270Z,22.00
2023-05-19T05:23:56.857Z,20.30
2023-05-19T05:26:30.971Z,21.20
2023-05-19T05:28:59.192Z,24.80
2023-05-19T05:31:27.446Z,23.00
2023-05-19T05:33:55.902Z,24.10
2023-05-19T05:36:25.957Z,18.00
2023-05-19T05:38:54.817Z,23.70
2023-05-19T05:41:24.266Z,19.10
2023-05-19T05:43:52.797Z,20.00
2023-05-19T05:46:21.159Z,15.80
2023-05-19T05:48:49.608Z,18.30
2023-05-19T05:51:18.268Z,19.00
2023-05-19T05:53:52.328Z,21.90
2023-05-19T05:56:22.274Z,21.70
2023-05-19T05:58:52.793Z,20.00
2023-05-19T06:01:22.038Z,17.60
2023-05-19T06:03:50.049Z,19.60
2023-05-19T06:06:21.516Z,18.00
2023-05-19T06:08:49.562Z,19.60
2023-05-19T06:11:19.663Z,23.30
2023-05-19T06:13:48.815Z,18.60
2023-05-19T06:16:24.486Z,15.80
2023-05-19T06:18:54.761Z,20.10
2023-05-19T06:21:23.058Z,23.40
2023-05-19T06:23:51.231Z,17.00
2023-05-19T06:26:19.611Z,20.50
2023-05-19T06:28:48.190Z,17.90
2023-05-19T06:31:16.686Z,19.40
2023-05-19T06:33:54.477Z,20.50
2023-05-19T06:36:22.932Z,20.80
2023-05-19T06:38:52.390Z,21.60
2023-05-19T06:41:22.172Z,22.20
2023-05-19T06:43:52.433Z,22.30
2023-05-19T06:48:52.242Z,21.10
2023-05-19T06:51:22.830Z,19.70
2023-05-19T06:53:54.670Z,24.40
2023-05-19T06:56:23.508Z,21.50
2023-05-19T06:58:52.193Z,23.90
2023-05-19T07:01:21.541Z,21.10
2023-05-19T07:03:52.798Z,22.10
2023-05-19T07:06:22.173Z,18.70
2023-05-19T07:08:51.253Z,20.90
2023-05-19T07:11:20.034Z,19.30
2023-05-19T07:13:48.674Z,19.90
2023-05-19T07:16:21.329Z,20.30
2023-05-19T07:18:49.867Z,21.00
2023-05-19T07:21:18.344Z,20.10
2023-05-19T07:23:48.062Z,17.60
2023-05-19T07:26:16.075Z,17.00
2023-05-19T07:28:44.311Z,20.40
2023-05-19T07:31:12.338Z,17.90
2023-05-19T07:33:41.438Z,18.50
2023-05-19T07:36:09.646Z,19.10
2023-05-19T07:38:37.776Z,17.10
2023-05-19T07:41:05.995Z,17.60
2023-05-19T07:43:34.313Z,19.80
2023-05-19T07:46:02.575Z,17.10
2023-05-19T07:48:30.875Z,15.20
2023-05-19T07:50:59.311Z,13.50
2023-05-19T07:53:28.102Z,16.10
2023-05-19T07:55:58.370Z,13.60
2023-05-19T07:58:26.863Z,13.70
2023-05-19T08:00:58.589Z,13.00
2023-05-19T08:03:27.539Z,14.10
2023-05-19T08:05:56.645Z,16.10
2023-05-19T08:08:24.857Z,15.10
2023-05-19T08:10:53.018Z,10.90
2023-05-19T08:13:21.178Z,12.40
2023-05-19T08:15:49.487Z,10.30
2023-05-19T08:18:17.621Z,18.50
2023-05-19T08:20:46.636Z,10.30
2023-05-19T08:23:14.791Z,9.90
2023-05-19T08:25:43.163Z,9.60
2023-05-19T08:28:11.541Z,12.50
2023-05-19T08:30:39.817Z,11.20
2023-05-19T08:33:08.602Z,9.50
2023-05-19T08:35:36.696Z,12.70
2023-05-19T08:38:04.625Z,11.30
2023-05-19T08:40:35.077Z,12.90
2023-05-19T08:43:03.920Z,9.40
2023-05-19T08:45:34.739Z,10.00
2023-05-19T08:48:04.338Z,9.90
2023-05-19T08:50:39.554Z,8.10
2023-05-19T08:53:32.564Z,9.40
2023-05-19T08:56:11.534Z,12.70
2023-05-19T08:58:44.063Z,7.10
2023-05-19T09:01:18.128Z,8.40
2023-05-19T09:03:49.637Z,13.00
2023-05-19T09:06:18.252Z,8.20
2023-05-19T09:08:47.281Z,8.00
2023-05-19T09:11:15.449Z,7.40
2023-05-19T09:13:43.864Z,10.20
2023-05-19T09:16:12.385Z,8.30
2023-05-19T09:18:41.278Z,9.90
2023-05-19T09:21:11.360Z,6.50
2023-05-19T09:23:39.519Z,9.00
2023-05-19T09:26:08.315Z,8.60
2023-05-19T09:28:38.234Z,9.20
2023-05-19T09:31:08.668Z,9.80
2023-05-19T09:33:45.632Z,9.80
2023-05-19T09:36:14.390Z,13.00
2023-05-19T09:38:42.780Z,11.70
2023-05-19T09:41:11.021Z,6.90
2023-05-19T09:43:39.203Z,10.90
2023-05-19T09:46:10.104Z,10.00
2023-05-19T09:48:39.940Z,10.30
2023-05-19T09:51:11.119Z,8.50
2023-05-19T09:53:39.473Z,8.20
2023-05-19T09:56:08.856Z,11.10
2023-05-19T09:58:37.795Z,11.60
2023-05-19T10:01:07.682Z,10.60
2023-05-19T10:03:36.917Z,8.70
2023-05-19T10:06:07.532Z,8.00
2023-05-19T10:08:38.016Z,8.80
2023-05-19T10:11:06.687Z,7.50
2023-05-19T10:13:38.594Z,7.70
2023-05-19T10:16:08.716Z,11.70
2023-05-19T10:18:39.974Z,13.20
2023-05-19T10:21:09.854Z,9.10
2023-05-19T10:23:38.751Z,11.30
2023-05-19T10:26:08.809Z,12.00
2023-05-19T10:28:39.736Z,14.20
2023-05-19T10:31:11.620Z,12.00
2023-05-19T10:34:03.090Z,10.10
2023-05-19T10:36:38.088Z,7.80
2023-05-19T10:39:16.781Z,13.00
2023-05-19T10:41:54.034Z,7.80
2023-05-19T10:47:12.146Z,11.60
2023-05-19T10:49:40.813Z,10.00
2023-05-19T10:52:26.231Z,12.50
2023-05-19T10:54:54.895Z,10.80
2023-05-19T10:57:28.432Z,11.50
2023-05-19T10:59:57.557Z,12.00
2023-05-19T11:02:43.436Z,9.10
2023-05-19T11:05:15.136Z,11.80
2023-05-19T11:07:45.137Z,10.30
2023-05-19T11:10:13.699Z,14.90
2023-05-19T11:12:45.078Z,12.80
2023-05-19T11:15:16.613Z,16.70
2023-05-19T11:17:49.078Z,14.20
2023-05-19T11:20:28.397Z,17.50
2023-05-19T11:23:06.489Z,16.80
2023-05-19T11:25:45.028Z,13.30
2023-05-19T11:28:16.623Z,14.40
2023-05-19T11:30:46.632Z,14.20
2023-05-19T11:33:15.011Z,16.40
2023-05-19T11:35:44.062Z,15.50
2023-05-19T11:38:13.476Z,11.10
2023-05-19T11:40:42.657Z,14.10
2023-05-19T11:43:11.056Z,11.40
2023-05-19T11:45:39.722Z,11.30
2023-05-19T11:48:16.029Z,12.90
2023-05-19T11:50:44.505Z,14.80
2023-05-19T11:53:16.647Z,17.70
2023-05-19T11:55:49.016Z,17.30
2023-05-19T11:58:17.606Z,15.10
2023-05-19T12:00:47.861Z,15.10
2023-05-19T12:03:21.409Z,16.00
2023-05-19T12:05:49.999Z,15.90
2023-05-19T12:08:19.195Z,12.50
2023-05-19T12:10:52.976Z,13.20
2023-05-19T12:13:23.117Z,14.50
2023-05-19T12:15:52.724Z,15.20
2023-05-19T12:18:21.581Z,11.70
2023-05-19T12:20:50.247Z,12.30
2023-05-19T12:23:18.582Z,12.20
2023-05-19T12:25:48.371Z,9.40
2023-05-19T12:28:17.394Z,9.30
2023-05-19T12:30:51.852Z,15.70
2023-05-19T12:33:20.193Z,10.70
2023-05-19T12:35:50.070Z,10.00
2023-05-19T12:38:20.119Z,11.10
2023-05-19T12:40:50.346Z,11.70
2023-05-19T12:43:25.284Z,6.30
2023-05-19T12:45:53.691Z,11.00
2023-05-19T12:48:22.998Z,6.60
2023-05-19T12:50:55.813Z,6.90
2023-05-19T12:53:27.748Z,10.60
2023-05-19T12:55:56.180Z,10.00
2023-05-19T12:58:24.557Z,8.10
2023-05-19T13:01:00.121Z,8.80
2023-05-19T13:03:28.556Z,9.80
2023-05-19T13:05:59.882Z,7.30
2023-05-19T13:08:27.910Z,11.60
2023-05-19T13:10:56.401Z,11.00
2023-05-19T13:13:24.610Z,14.10
2023-05-19T13:15:52.581Z,8.70
2023-05-19T13:18:20.653Z,10.70
2023-05-19T13:20:53.134Z,8.60
2023-05-19T13:23:21.381Z,7.50
2023-05-19T13:25:50.981Z,10.80
2023-05-19T13:28:19.370Z,11.20
2023-05-19T13:30:48.391Z,8.20
2023-05-19T13:33:16.612Z,13.40
2023-05-19T13:35:44.889Z,9.10
2023-05-19T13:38:13.374Z,11.00
2023-05-19T13:40:41.655Z,14.60
2023-05-19T13:43:09.860Z,12.90
2023-05-19T13:45:38.206Z,12.40
2023-05-19T13:48:07.564Z,10.20
2023-05-19T13:50:36.390Z,12.80
2023-05-19T13:53:04.884Z,12.40
2023-05-19T13:55:33.240Z,9.50
2023-05-19T13:58:01.581Z,10.20
2023-05-19T14:00:32.045Z,7.10
2023-05-19T14:05:29.406Z,10.00
2023-05-19T14:07:58.250Z,8.60
2023-05-19T14:10:27.095Z,9.00
2023-05-19T14:13:28.921Z,9.20
2023-05-19T14:15:44.603Z,7.00
2023-05-19T14:18:12.768Z,11.30
2023-05-19T14:20:41.054Z,8.00
2023-05-19T14:23:09.196Z,9.40
2023-05-19T14:25:37.267Z,13.10
2023-05-19T14:28:05.623Z,14.10
2023-05-19T14:30:34.437Z,10.80
2023-05-19T14:33:02.926Z,9.30
2023-05-19T14:35:31.180Z,8.40
2023-05-19T14:37:59.266Z,7.40
2023-05-19T14:40:27.450Z,7.40
2023-05-19T14:42:55.783Z,12.20
2023-05-19T14:45:24.152Z,7.90
2023-05-19T14:47:52.923Z,7.60
2023-05-19T14:50:21.164Z,14.60
2023-05-19T14:52:49.308Z,8.70
2023-05-19T14:55:17.610Z,8.20
2023-05-19T14:57:46.604Z,10.20
2023-05-19T15:00:14.864Z,8.40
2023-05-19T15:02:43.723Z,6.70
2023-05-19T15:05:12.180Z,10.10
2023-05-19T15:07:40.248Z,7.50
2023-05-19T15:10:16.617Z,10.70
2023-05-19T15:12:44.631Z,11.70
2023-05-19T15:15:12.860Z,8.40
2023-05-19T15:17:41.192Z,12.50
2023-05-19T15:20:09.897Z,9.60
2023-05-19T15:22:38.100Z,10.60
2023-05-19T15:25:06.973Z,12.50
2023-05-19T15:27:38.713Z,9.00
2023-05-19T15:30:07.500Z,9.60
2023-05-19T15:32:35.674Z,8.70
2023-05-19T15:35:03.787Z,9.40
2023-05-19T15:37:31.903Z,12.10
2023-05-19T15:39:59.905Z,9.40
2023-05-19T15:42:28.355Z,7.80
2023-05-19T15:44:56.483Z,10.40
2023-05-19T15:47:24.441Z,10.90
2023-05-19T15:49:52.628Z,12.40
2023-05-19T15:52:21.050Z,9.80
2023-05-19T15:54:49.328Z,10.90
2023-05-19T15:57:17.446Z,8.20
2023-05-19T15:59:46.087Z,9.20
2023-05-19T16:02:15.097Z,10.50
2023-05-19T16:04:43.357Z,7.10
2023-05-19T16:07:11.561Z,6.10
2023-05-19T16:09:39.611Z,7.50
2023-05-19T16:12:08.228Z,6.40
2023-05-19T16:14:38.004Z,5.30
2023-05-19T16:17:11.458Z,3.90
2023-05-19T16:19:39.459Z,6.10
2023-05-19T16:22:07.666Z,5.00
2023-05-19T16:24:35.940Z,7.00
2023-05-19T16:27:05.117Z,6.40
2023-05-19T16:29:33.401Z,4.00
2023-05-19T16:32:01.859Z,3.80
2023-05-19T16:34:30.768Z,4.40
2023-05-19T16:36:59.145Z,3.50
2023-05-19T16:39:27.418Z,3.40
2023-05-19T16:41:55.596Z,3.80
2023-05-19T16:44:24.790Z,4.70
2023-05-19T16:46:52.807Z,4.70
2023-05-19T16:49:20.996Z,4.90
2023-05-19T16:51:49.105Z,4.30
2023-05-19T16:54:17.589Z,4.50
2023-05-19T16:56:46.262Z,3.20
2023-05-19T16:59:14.305Z,4.20
2023-05-19T17:01:42.420Z,4.20
2023-05-19T17:04:10.652Z,3.80
2023-05-19T17:06:38.765Z,2.50
2023-05-19T17:09:07.996Z,2.40
2023-05-19T17:11:36.387Z,3.30
2023-05-19T17:14:07.994Z,3.20
2023-05-19T17:16:36.951Z,3.20
2023-05-19T17:19:05.043Z,2.90
2023-05-19T17:21:33.958Z,2.60
2023-05-19T17:24:02.128Z,2.20
2023-05-19T17:26:30.227Z,3.10
2023-05-19T17:28:58.884Z,4.70
2023-05-19T17:31:26.939Z,3.10
2023-05-19T17:33:55.128Z,4.60
2023-05-19T17:36:23.408Z,2.70
2023-05-19T17:38:51.583Z,3.90
2023-05-19T17:41:19.668Z,2.70
2023-05-19T17:43:47.990Z,4.00
2023-05-19T17:46:16.546Z,3.20
2023-05-19T17:48:44.992Z,6.10
2023-05-19T17:51:13.173Z,5.80
2023-05-19T17:53:41.714Z,8.70
2023-05-19T17:56:12.182Z,5.60
2023-05-19T17:58:41.484Z,5.10
2023-05-19T18:01:10.038Z,9.00
2023-05-19T18:03:38.613Z,68.90
2023-05-19T18:06:07.655Z,18.30
2023-05-19T18:08:37.890Z,31.50
2023-05-19T18:11:06.243Z,7.40
2023-05-19T18:13:34.513Z,48.90
2023-05-19T18:16:02.606Z,8.40
2023-05-19T18:18:31.171Z,14.70
2023-05-19T18:20:59.126Z,11.20
2023-05-19T18:23:27.414Z,11.40
2023-05-19T18:25:55.552Z,12.40
2023-05-19T18:28:24.276Z,8.20
2023-05-19T18:31:06.488Z,9.40
2023-05-19T18:33:35.370Z,11.30
2023-05-19T18:36:03.761Z,9.30
2023-05-19T18:38:32.064Z,12.50
2023-05-19T18:41:00.871Z,11.00
2023-05-19T18:43:30.361Z,11.10
2023-05-19T18:45:58.996Z,47.00
2023-05-19T18:48:27.231Z,27.50
2023-05-19T18:50:55.555Z,9.00
2023-05-19T18:53:23.604Z,7.40
2023-05-19T18:55:51.729Z,8.00
2023-05-19T18:58:20.080Z,5.20
2023-05-19T19:00:48.276Z,6.90
2023-05-19T19:03:16.644Z,9.00
2023-05-19T19:05:45.419Z,9.80
2023-05-19T19:08:13.710Z,9.90
2023-05-19T19:10:42.616Z,6.00
2023-05-19T19:13:10.804Z,11.80
2023-05-19T19:15:39.759Z,8.10
2023-05-19T19:18:08.329Z,10.20
2023-05-19T19:20:36.525Z,8.10
2023-05-19T19:23:06.900Z,10.50
2023-05-19T19:25:35.426Z,13.00
2023-05-19T19:28:04.002Z,15.70
2023-05-19T19:30:32.481Z,16.00
2023-05-19T19:33:00.783Z,22.00
2023-05-19T19:35:28.870Z,19.20
2023-05-19T19:37:58.657Z,19.10
2023-05-19T19:40:26.930Z,16.40
2023-05-19T19:42:55.493Z,15.10
2023-05-19T19:45:24.092Z,11.50
2023-05-19T19:47:52.794Z,8.80
2023-05-19T19:50:21.972Z,9.40
2023-05-19T19:52:50.400Z,10.40
2023-05-19T19:55:18.654Z,12.20
2023-05-19T19:57:49.605Z,17.70
2023-05-19T20:00:18.790Z,12.30
2023-05-19T20:03:03.846Z,14.00
2023-05-19T20:05:34.873Z,18.40
2023-05-19T20:08:03.070Z,14.10
2023-05-19T20:10:31.466Z,14.10
2023-05-19T20:12:59.918Z,12.40
2023-05-19T20:15:28.288Z,12.10
2023-05-19T20:17:56.571Z,13.10
2023-05-19T20:20:24.833Z,13.00
2023-05-19T20:22:52.832Z,12.20
2023-05-19T20:25:20.996Z,15.50
2023-05-19T20:27:49.581Z,13.70
2023-05-19T20:30:17.782Z,11.10
2023-05-19T20:32:48.877Z,13.40
2023-05-19T20:35:17.216Z,11.00
2023-05-19T20:37:45.260Z,9.60
2023-05-19T20:40:13.857Z,16.90
2023-05-19T20:42:42.413Z,17.80
2023-05-19T20:45:10.722Z,15.40
2023-05-19T20:47:38.988Z,15.50
2023-05-19T20:50:07.785Z,13.60
2023-05-19T20:52:36.089Z,16.20
2023-05-19T20:55:04.413Z,13.00
2023-05-19T20:57:33.230Z,16.80
2023-05-19T21:00:01.571Z,10.80
2023-05-19T21:02:29.853Z,15.50
2023-05-19T21:04:58.139Z,19.70
2023-05-19T21:07:26.537Z,16.70
2023-05-19T21:09:54.747Z,14.90
2023-05-19T21:12:25.451Z,14.40
2023-05-19T21:14:53.488Z,14.80
2023-05-19T21:17:21.683Z,15.60
2023-05-19T21:19:50.661Z,14.20
2023-05-19T21:22:19.032Z,16.70
2023-05-19T21:24:47.304Z,19.30
2023-05-19T21:27:15.406Z,15.10
2023-05-19T21:29:43.655Z,17.50
2023-05-19T21:32:11.934Z,13.20
2023-05-19T21:34:40.003Z,19.00
2023-05-19T21:37:08.081Z,19.90
2023-05-19T21:39:36.169Z,17.90
2023-05-19T21:42:04.839Z,19.10
2023-05-19T21:44:32.932Z,12.50
2023-05-19T21:47:01.305Z,14.50
2023-05-19T21:49:29.478Z,15.90
2023-05-19T21:51:57.752Z,15.70
2023-05-19T21:54:25.900Z,14.80
2023-05-19T21:56:53.865Z,16.80
2023-05-19T21:59:24.911Z,15.50
2023-05-19T22:04:22.634Z,18.60
2023-05-19T22:06:51.300Z,10.60
2023-05-19T22:09:19.391Z,15.10
2023-05-19T22:11:47.935Z,16.90
2023-05-19T22:14:15.972Z,14.80
2023-05-19T22:16:44.999Z,16.50
2023-05-19T22:19:14.771Z,18.40
2023-05-19T22:21:43.049Z,14.80
2023-05-19T22:24:11.264Z,16.90
2023-05-19T22:26:42.806Z,13.60
2023-05-19T22:29:15.249Z,15.40
2023-05-19T22:31:43.512Z,18.20
2023-05-19T22:34:12.847Z,16.90
2023-05-19T22:36:44.104Z,17.80
2023-05-19T22:39:15.156Z,17.90
2023-05-19T22:41:43.385Z,17.50
2023-05-19T22:44:15.700Z,17.50
2023-05-19T22:46:44.899Z,13.20
2023-05-19T22:49:13.276Z,16.60
2023-05-19T22:51:41.679Z,15.70
2023-05-19T22:54:10.746Z,14.80
2023-05-19T22:56:38.725Z,17.60
2023-05-19T22:59:06.644Z,18.20
2023-05-19T23:01:34.870Z,17.90
2023-05-19T23:04:04.013Z,13.20
2023-05-19T23:06:32.400Z,19.20
2023-05-19T23:09:04.472Z,15.90
2023-05-19T23:11:32.518Z,22.60
2023-05-19T23:14:00.925Z,15.00
2023-05-19T23:16:29.274Z,16.20
2023-05-19T23:18:57.596Z,20.40
2023-05-19T23:21:25.882Z,19.10
2023-05-19T23:23:54.203Z,20.70
2023-05-19T23:26:22.468Z,20.90
2023-05-19T23:28:50.715Z,16.80
2023-05-19T23:31:18.743Z,16.90
2023-05-19T23:33:46.974Z,17.20
2023-05-19T23:36:16.164Z,17.80
2023-05-19T23:38:44.455Z,21.70
2023-05-19T23:41:12.963Z,20.60
2023-05-19T23:43:41.005Z,18.50
2023-05-19T23:46:09.572Z,16.30
2023-05-19T23:48:37.960Z,21.00
2023-05-19T23:51:06.105Z,16.80
2023-05-19T23:53:34.305Z,18.80
2023-05-19T23:56:02.555Z,20.60
2023-05-19T23:58:30.830Z,19.30
